Time;durP1;ratioP1;P1;durP2;ratioP2;P2;SDS_P1;SDS_P2;PMS_P1;PMS_P2;Temp;Humidity;BMP_temperature;BMP_pressure;BME280_temperature;BME280_humidity;BME280_pressure;Samples;Min_cycle;Max_cycle;Signal;HPM_P1;HPM_P2
2023/05/18 00:02:04;;;;;;;6.15;1.30;;;9.00;99.90;;;;;;4994809;28;20050;-81
2023/05/18 00:04:50;;;;;;;7.38;1.45;;;9.00;99.90;;;;;;4996010;28;20212;-82
2023/05/18 00:07:36;;;;;;;5.40;1.40;;;9.00;99.90;;;;;;4995249;28;20470;-83
2023/05/18 00:10:24;;;;;;;4.28;1.15;;;9.00;99.90;;;;;;4994530;28;20045;-81
2023/05/18 00:13:10;;;;;;;6.30;1.83;;;9.00;99.90;;;;;;4993894;28;20049;-80
2023/05/18 00:15:57;;;;;;;7.70;1.33;;;9.00;99.90;;;;;;4994790;28;20613;-82
2023/05/18 00:18:43;;;;;;;5.53;1.17;;;8.90;99.90;;;;;;4992806;28;20057;-80
2023/05/18 00:21:34;;;;;;;8.63;1.70;;;9.00;99.90;;;;;;4968240;28;20061;-81
2023/05/18 00:24:20;;;;;;;7.20;1.27;;;9.00;99.90;;;;;;4994523;28;20046;-81
2023/05/18 00:27:06;;;;;;;7.53;1.42;;;9.00;99.90;;;;;;4993748;28;20057;-80
2023/05/18 00:29:52;;;;;;;9.38;1.40;;;9.00;99.90;;;;;;4985326;28;20050;-81
2023/05/18 00:32:39;;;;;;;15.35;2.67;;;9.10;99.90;;;;;;4980458;28;20057;-81
2023/05/18 00:35:25;;;;;;;10.75;1.88;;;9.10;99.90;;;;;;4979569;28;20092;-81
2023/05/18 00:38:14;;;;;;;8.98;1.73;;;9.10;99.90;;;;;;4979727;28;20458;-81
2023/05/18 00:41:01;;;;;;;8.40;1.98;;;9.00;99.90;;;;;;4993799;28;20489;-81
2023/05/18 00:43:47;;;;;;;7.20;1.60;;;9.10;99.90;;;;;;4993667;28;20046;-81
2023/05/18 00:46:33;;;;;;;13.23;1.83;;;9.10;99.90;;;;;;4992658;28;20053;-80
2023/05/18 00:49:19;;;;;;;4.90;1.40;;;9.10;99.90;;;;;;4993274;28;20065;-81
2023/05/18 00:52:05;;;;;;;6.63;1.42;;;9.10;99.90;;;;;;4992893;28;20061;-81
2023/05/18 00:54:52;;;;;;;10.82;2.47;;;9.10;99.90;;;;;;5009459;28;20070;-81
2023/05/18 00:57:43;;;;;;;5.95;1.30;;;9.10;99.90;;;;;;4992973;28;20065;-81
2023/05/18 01:00:29;;;;;;;7.30;1.50;;;9.00;99.90;;;;;;5009517;28;20090;-82
2023/05/18 01:03:18;;;;;;;4.05;0.80;;;9.00;99.90;;;;;;4980319;28;20049;-81
2023/05/18 01:06:06;;;;;;;8.48;1.40;;;9.00;99.90;;;;;;4992756;28;20085;-82
2023/05/18 01:08:53;;;;;;;6.57;1.10;;;9.00;99.90;;;;;;4993166;28;20115;-82
2023/05/18 01:11:46;;;;;;;9.23;1.48;;;9.00;99.90;;;;;;4979159;28;20061;-81
2023/05/18 01:15:02;;;;;;;6.82;1.17;;;9.00;99.90;;;;;;4992404;28;20057;-81
2023/05/18 01:17:52;;;;;;;;;;;9.00;99.90;;;;;;4969351;28;20068;-81
2023/05/18 01:20:42;;;;;;;5.90;1.33;;;9.00;99.90;;;;;;4993199;28;20003;-80
2023/05/18 01:23:34;;;;;;;7.97;1.40;;;8.90;99.90;;;;;;4978984;28;20054;-82
2023/05/18 01:26:30;;;;;;;5.97;1.42;;;8.90;99.90;;;;;;4993193;28;20057;-81
2023/05/18 01:29:18;;;;;;;10.25;1.65;;;8.90;99.90;;;;;;4992741;28;20050;-81
2023/05/18 01:32:06;;;;;;;21.10;3.50;;;8.90;99.90;;;;;;4979217;28;20054;-81
2023/05/18 01:34:53;;;;;;;8.85;1.70;;;8.90;99.90;;;;;;4979563;28;20078;-81
2023/05/18 01:37:42;;;;;;;5.68;1.30;;;8.90;99.90;;;;;;5010799;28;20084;-81
2023/05/18 01:40:36;;;;;;;7.15;1.55;;;8.90;99.90;;;;;;4991977;28;20049;-81
2023/05/18 01:43:29;;;;;;;6.18;1.55;;;8.90;99.90;;;;;;4979513;28;20049;-81
2023/05/18 01:46:41;;;;;;;12.02;1.38;;;8.90;99.90;;;;;;5009736;28;20057;-82
2023/05/18 01:50:03;;;;;;;8.23;1.90;;;8.90;99.90;;;;;;4992507;28;20088;-81
2023/05/18 01:53:26;;;;;;;5.57;1.50;;;8.90;99.90;;;;;;4993037;28;20053;-82
2023/05/18 01:56:13;;;;;;;6.55;1.20;;;8.90;99.90;;;;;;4926213;28;20049;-82
2023/05/18 01:59:01;;;;;;;8.60;1.88;;;8.90;99.90;;;;;;4992551;28;20141;-83
2023/05/18 02:01:48;;;;;;;10.88;1.20;;;8.90;99.90;;;;;;4978379;28;20774;-82
2023/05/18 02:04:34;;;;;;;7.65;1.90;;;9.00;99.90;;;;;;4966672;28;20050;-81
2023/05/18 02:07:23;;;;;;;6.63;1.30;;;9.00;99.90;;;;;;4992558;28;20058;-82
2023/05/18 02:10:10;;;;;;;8.05;1.58;;;9.00;99.90;;;;;;4992318;28;20053;-81
2023/05/18 02:12:58;;;;;;;7.32;1.70;;;9.00;99.90;;;;;;4991803;28;20053;-81
2023/05/18 02:15:44;;;;;;;5.60;1.13;;;9.00;99.90;;;;;;4991629;28;20502;-82
2023/05/18 02:18:32;;;;;;;12.50;1.73;;;9.00;99.90;;;;;;4992051;28;20127;-82
2023/05/18 02:21:19;;;;;;;6.28;1.90;;;9.00;99.90;;;;;;4992586;28;20153;-82
2023/05/18 02:24:05;;;;;;;6.72;1.25;;;9.00;99.90;;;;;;4978459;28;20054;-80
2023/05/18 02:26:53;;;;;;;5.80;1.63;;;9.00;99.90;;;;;;4996946;28;20049;-80
2023/05/18 02:29:43;;;;;;;6.40;1.50;;;9.00;99.90;;;;;;5014046;28;20049;-82
2023/05/18 02:32:31;;;;;;;9.75;2.90;;;9.00;99.90;;;;;;5011853;28;20068;-82
2023/05/18 02:35:17;;;;;;;6.75;1.55;;;9.00;99.90;;;;;;4995430;28;20490;-81
2023/05/18 02:38:03;;;;;;;11.65;1.55;;;9.00;99.90;;;;;;4982181;28;20045;-80
2023/05/18 02:40:49;;;;;;;8.30;1.60;;;9.00;99.90;;;;;;4994426;28;20085;-81
2023/05/18 02:43:38;;;;;;;9.38;1.30;;;8.90;99.90;;;;;;4998890;28;20509;-81
2023/05/18 02:46:24;;;;;;;9.13;1.70;;;8.90;99.90;;;;;;4995411;28;20112;-82
2023/05/18 02:49:11;;;;;;;7.70;1.65;;;8.90;99.90;;;;;;4981208;28;20072;-81
2023/05/18 02:51:57;;;;;;;6.85;1.60;;;8.90;99.90;;;;;;4995894;28;20050;-82
2023/05/18 02:54:43;;;;;;;6.53;1.55;;;8.90;99.90;;;;;;5011158;28;20633;-81
2023/05/18 02:57:30;;;;;;;9.98;1.88;;;8.80;99.90;;;;;;4993739;28;20050;-82
2023/05/18 03:00:18;;;;;;;6.07;1.25;;;8.80;99.90;;;;;;4994728;28;20054;-85
2023/05/18 03:03:04;;;;;;;8.10;1.60;;;8.80;99.90;;;;;;4981932;28;20135;-84
2023/05/18 03:05:53;;;;;;;8.32;1.23;;;8.80;99.90;;;;;;4980962;28;20092;-85
2023/05/18 03:08:41;;;;;;;10.73;2.15;;;8.80;99.90;;;;;;5010750;28;20116;-84
2023/05/18 03:11:27;;;;;;;11.35;3.25;;;8.70;99.90;;;;;;4994774;28;20057;-85
2023/05/18 03:14:13;;;;;;;7.47;1.45;;;8.70;99.90;;;;;;4995872;28;20414;-85
2023/05/18 03:17:00;;;;;;;9.25;1.92;;;8.70;99.90;;;;;;4995397;28;20057;-86
2023/05/18 03:19:46;;;;;;;5.07;1.20;;;8.70;99.90;;;;;;4995150;28;20502;-85
2023/05/18 03:22:32;;;;;;;5.40;1.58;;;8.70;99.90;;;;;;4981428;28;20056;-83
2023/05/18 03:25:18;;;;;;;7.03;1.65;;;8.70;99.90;;;;;;4994951;28;20132;-84
2023/05/18 03:28:04;;;;;;;7.93;1.23;;;8.70;99.90;;;;;;5010653;28;20399;-84
2023/05/18 03:30:50;;;;;;;4.43;1.23;;;8.70;99.90;;;;;;4982739;28;20119;-84
2023/05/18 03:33:37;;;;;;;7.97;2.03;;;8.70;99.90;;;;;;4994395;28;20080;-84
2023/05/18 03:36:26;;;;;;;9.85;1.65;;;8.60;99.90;;;;;;4980708;28;20494;-84
2023/05/18 03:39:13;;;;;;;7.78;3.00;;;8.60;99.90;;;;;;4994822;28;20061;-83
2023/05/18 03:41:59;;;;;;;7.80;1.90;;;8.60;99.90;;;;;;4994448;28;20073;-83
2023/05/18 03:44:45;;;;;;;12.27;2.10;;;8.60;99.90;;;;;;4994138;28;20057;-81
2023/05/18 03:47:31;;;;;;;8.40;1.45;;;8.70;99.90;;;;;;4994867;28;20465;-84
2023/05/18 03:50:20;;;;;;;11.48;3.22;;;8.70;99.90;;;;;;4994790;28;20529;-83
2023/05/18 03:53:07;;;;;;;7.43;1.38;;;8.60;99.90;;;;;;4980884;28;20101;-83
2023/05/18 03:55:53;;;;;;;5.97;1.52;;;8.60;99.90;;;;;;4981539;28;20049;-85
2023/05/18 03:58:41;;;;;;;4.10;1.67;;;8.70;99.90;;;;;;4981827;28;20045;-83
2023/05/18 04:01:29;;;;;;;6.88;1.95;;;8.70;99.90;;;;;;4981846;28;20053;-83
2023/05/18 04:04:16;;;;;;;6.00;1.40;;;8.70;99.90;;;;;;4968612;28;20057;-83
2023/05/18 04:07:04;;;;;;;12.60;1.35;;;8.70;99.90;;;;;;4988186;28;20085;-81
2023/05/18 04:09:55;;;;;;;4.90;1.50;;;8.70;99.90;;;;;;5011696;28;20057;-81
2023/05/18 04:12:41;;;;;;;6.18;1.90;;;8.70;99.90;;;;;;4994723;28;20054;-83
2023/05/18 04:15:27;;;;;;;9.38;1.98;;;8.70;99.90;;;;;;4993007;28;20050;-84
2023/05/18 04:18:13;;;;;;;6.18;1.90;;;8.70;99.90;;;;;;4979155;28;20588;-81
2023/05/18 04:21:01;;;;;;;7.45;2.00;;;8.70;99.90;;;;;;4994263;28;20074;-83
2023/05/18 04:23:48;;;;;;;4.65;1.52;;;8.80;99.90;;;;;;4992818;28;20058;-84
2023/05/18 04:26:37;;;;;;;5.90;1.42;;;8.80;99.90;;;;;;4992723;28;20053;-80
2023/05/18 04:29:23;;;;;;;7.15;1.63;;;8.80;99.90;;;;;;4993064;28;20058;-83
2023/05/18 04:32:09;;;;;;;8.57;1.83;;;8.80;99.90;;;;;;4993990;28;20108;-83
2023/05/18 04:34:57;;;;;;;7.22;1.73;;;8.80;99.90;;;;;;4981437;28;20178;-81
2023/05/18 04:37:43;;;;;;;7.55;1.95;;;8.80;99.90;;;;;;4994063;28;20046;-83
2023/05/18 04:40:32;;;;;;;9.32;2.22;;;8.90;99.90;;;;;;4993462;28;20049;-83
2023/05/18 04:43:19;;;;;;;6.03;1.42;;;8.90;99.90;;;;;;4993271;28;20060;-83
2023/05/18 04:46:05;;;;;;;7.35;1.38;;;9.00;99.90;;;;;;4980530;28;20514;-83
2023/05/18 04:48:56;;;;;;;4.78;1.60;;;9.00;99.90;;;;;;4992848;28;20532;-82
2023/05/18 04:51:45;;;;;;;10.75;1.95;;;9.00;99.90;;;;;;5009763;28;20045;-83
2023/05/18 04:54:31;;;;;;;6.28;1.67;;;9.10;99.90;;;;;;4980537;28;20045;-83
2023/05/18 04:57:18;;;;;;;6.25;1.88;;;9.10;99.90;;;;;;4993544;28;20054;-81
2023/05/18 05:00:04;;;;;;;8.63;1.90;;;9.10;99.90;;;;;;4992905;28;20066;-82
2023/05/18 05:02:51;;;;;;;7.38;1.73;;;9.20;99.90;;;;;;4979972;28;20050;-83
2023/05/18 05:05:37;;;;;;;4.22;1.45;;;9.20;99.90;;;;;;4993107;28;20111;-83
2023/05/18 05:08:23;;;;;;;4.93;1.73;;;9.30;99.90;;;;;;4992558;28;20422;-83
2023/05/18 05:11:09;;;;;;;10.13;2.10;;;9.30;99.90;;;;;;4992592;28;20046;-84
2023/05/18 05:13:55;;;;;;;9.82;1.90;;;9.40;99.90;;;;;;4992337;28;20663;-82
2023/05/18 05:16:41;;;;;;;7.03;1.63;;;9.50;99.90;;;;;;4992631;28;20483;-82
2023/05/18 05:19:27;;;;;;;8.45;2.70;;;9.50;99.90;;;;;;4992991;28;20099;-83
2023/05/18 05:22:13;;;;;;;5.53;2.05;;;9.50;99.90;;;;;;4980729;28;20189;-84
2023/05/18 05:24:59;;;;;;;7.65;2.10;;;9.50;99.90;;;;;;4993624;28;20474;-84
2023/05/18 05:27:45;;;;;;;5.85;1.60;;;9.50;99.90;;;;;;4993166;28;20057;-83
2023/05/18 05:30:31;;;;;;;7.18;1.77;;;9.60;99.90;;;;;;4993004;28;20133;-80
2023/05/18 05:33:17;;;;;;;12.50;2.80;;;9.60;99.90;;;;;;4979626;28;20089;-82
2023/05/18 05:36:04;;;;;;;10.15;1.55;;;9.70;99.90;;;;;;4992648;28;20137;-82
2023/05/18 05:38:50;;;;;;;5.68;1.50;;;9.70;99.90;;;;;;4992250;28;20054;-83
2023/05/18 05:41:37;;;;;;;7.05;1.33;;;9.80;99.90;;;;;;5008305;28;20057;-81
2023/05/18 05:44:23;;;;;;;10.77;2.13;;;9.90;99.90;;;;;;4978893;28;20055;-81
2023/05/18 05:47:10;;;;;;;8.27;2.13;;;9.90;99.90;;;;;;4979556;28;20054;-83
2023/05/18 05:49:56;;;;;;;9.98;1.95;;;9.90;99.90;;;;;;4979611;28;20072;-81
2023/05/18 05:52:42;;;;;;;16.50;4.38;;;10.00;99.90;;;;;;4991877;28;20057;-84
2023/05/18 05:55:28;;;;;;;13.95;1.70;;;10.10;99.90;;;;;;4991874;28;20054;-83
2023/05/18 05:58:15;;;;;;;6.72;1.67;;;10.20;99.90;;;;;;4991925;28;20060;-83
2023/05/18 06:01:01;;;;;;;8.27;1.42;;;10.30;99.90;;;;;;5009229;28;20046;-81
2023/05/18 06:03:48;;;;;;;13.73;1.90;;;10.30;99.90;;;;;;4979107;28;20054;-83
2023/05/18 06:06:37;;;;;;;10.85;1.63;;;10.40;99.90;;;;;;4991444;28;20046;-83
2023/05/18 06:09:23;;;;;;;12.60;1.60;;;10.50;99.90;;;;;;4979092;28;20529;-82
2023/05/18 06:12:12;;;;;;;8.15;1.52;;;10.50;99.90;;;;;;4979601;28;20057;-81
2023/05/18 06:14:58;;;;;;;7.85;1.80;;;10.50;99.90;;;;;;4979201;28;20520;-81
2023/05/18 06:17:47;;;;;;;8.95;1.63;;;10.60;99.90;;;;;;4996154;28;20048;-81
2023/05/18 06:20:38;;;;;;;4.45;1.08;;;10.60;99.90;;;;;;4979729;28;20054;-82
2023/05/18 06:23:24;;;;;;;7.38;1.90;;;10.70;99.90;;;;;;4992396;28;20058;-82
2023/05/18 06:26:11;;;;;;;9.25;2.17;;;10.70;99.90;;;;;;4992350;28;20076;-83
2023/05/18 06:28:57;;;;;;;13.60;3.42;;;10.80;99.90;;;;;;4991629;28;20054;-83
2023/05/18 06:31:46;;;;;;;10.43;2.05;;;10.80;99.90;;;;;;4995814;28;20054;-82
2023/05/18 06:34:36;;;;;;;5.18;1.35;;;10.70;99.90;;;;;;4991979;28;20054;-85
2023/05/18 06:37:22;;;;;;;8.98;2.00;;;10.80;99.90;;;;;;5009043;28;20050;-82
2023/05/18 06:40:11;;;;;;;8.80;1.50;;;10.80;99.90;;;;;;4992485;28;20058;-80
2023/05/18 06:43:01;;;;;;;10.63;1.63;;;10.90;99.90;;;;;;5010459;28;20397;-83
2023/05/18 06:45:47;;;;;;;9.07;1.60;;;11.00;99.90;;;;;;4991450;28;20077;-82
2023/05/18 06:48:33;;;;;;;9.63;2.17;;;11.00;99.70;;;;;;4991755;28;20077;-85
2023/05/18 06:51:19;;;;;;;6.53;1.40;;;11.00;99.60;;;;;;4991221;28;20057;-84
2023/05/18 06:54:07;;;;;;;6.97;1.55;;;11.10;99.60;;;;;;4991486;28;20153;-84
2023/05/18 06:56:55;;;;;;;9.27;1.73;;;11.20;99.70;;;;;;4991444;28;20057;-85
2023/05/18 06:59:41;;;;;;;5.45;1.15;;;11.20;99.40;;;;;;4991462;28;20506;-85
2023/05/18 07:02:27;;;;;;;5.22;1.83;;;11.30;99.30;;;;;;4978554;28;20140;-86
2023/05/18 07:05:13;;;;;;;10.30;1.85;;;11.40;99.00;;;;;;4992763;28;20618;-84
2023/05/18 07:08:00;;;;;;;6.25;1.65;;;11.60;99.20;;;;;;4990496;28;20069;-82
2023/05/18 07:10:46;;;;;;;7.35;1.80;;;11.70;98.70;;;;;;5010169;28;20058;-83
2023/05/18 07:13:32;;;;;;;7.13;1.65;;;11.90;98.10;;;;;;5004564;28;20064;-83
2023/05/18 07:16:18;;;;;;;7.53;1.50;;;11.90;98.00;;;;;;5005469;28;20054;-81
2023/05/18 07:19:04;;;;;;;7.65;1.65;;;12.10;97.80;;;;;;5005390;28;20120;-85
2023/05/18 07:21:51;;;;;;;9.10;1.35;;;12.30;97.80;;;;;;4993696;28;20050;-83
2023/05/18 07:24:37;;;;;;;17.27;1.90;;;12.30;97.40;;;;;;4996455;28;20077;-81
2023/05/18 07:27:23;;;;;;;6.32;1.70;;;12.50;97.30;;;;;;4982372;28;20054;-80
2023/05/18 07:30:10;;;;;;;7.40;1.60;;;12.60;97.40;;;;;;4994860;28;20147;-80
2023/05/18 07:32:56;;;;;;;6.50;1.52;;;12.80;96.90;;;;;;4995541;28;20053;-81
2023/05/18 07:35:42;;;;;;;8.45;1.92;;;13.00;96.80;;;;;;4994343;28;20050;-82
2023/05/18 07:38:28;;;;;;;11.35;1.65;;;13.10;96.20;;;;;;4981691;28;20056;-83
2023/05/18 07:44:57;;;;;;;6.15;1.42;;;13.50;96.00;;;;;;4994908;28;20398;-81
2023/05/18 07:47:43;;;;;;;6.63;1.45;;;13.80;95.90;;;;;;4994233;28;20063;-81
2023/05/18 07:50:29;;;;;;;6.53;1.42;;;13.80;95.20;;;;;;4967794;28;20800;-83
2023/05/18 07:53:16;;;;;;;9.70;1.70;;;13.80;95.10;;;;;;4994381;28;20099;-82
2023/05/18 07:56:02;;;;;;;7.50;1.42;;;13.90;95.10;;;;;;4981122;28;20391;-83
2023/05/18 07:58:49;;;;;;;8.45;1.52;;;14.00;95.20;;;;;;5011515;28;20057;-82
2023/05/18 08:01:36;;;;;;;7.10;1.27;;;14.10;94.50;;;;;;4994153;28;20097;-82
2023/05/18 08:04:22;;;;;;;8.02;2.03;;;14.50;94.30;;;;;;4981275;28;20509;-81
2023/05/18 08:07:09;;;;;;;6.97;1.33;;;14.60;93.80;;;;;;4993943;28;20204;-81
2023/05/18 08:09:55;;;;;;;5.25;1.52;;;15.00;93.90;;;;;;5010623;28;20177;-82
2023/05/18 08:12:45;;;;;;;7.97;1.50;;;15.40;93.80;;;;;;4998312;28;20049;-82
2023/05/18 08:15:31;;;;;;;5.97;1.52;;;15.60;92.90;;;;;;4968329;28;20415;-84
2023/05/18 08:18:17;;;;;;;7.53;1.50;;;15.80;93.00;;;;;;5012644;28;20146;-81
2023/05/18 08:21:08;;;;;;;7.25;1.75;;;15.80;92.70;;;;;;4998124;28;20054;-82
2023/05/18 08:23:55;;;;;;;6.43;1.48;;;15.90;92.30;;;;;;5010672;28;20470;-86
2023/05/18 08:26:45;;;;;;;11.30;1.50;;;15.90;91.70;;;;;;5011896;28;20060;-81
2023/05/18 08:29:31;;;;;;;6.03;1.30;;;16.10;92.10;;;;;;4980234;28;20059;-85
2023/05/18 08:32:17;;;;;;;7.50;1.50;;;16.00;91.60;;;;;;4954718;28;20049;-82
2023/05/18 08:35:04;;;;;;;5.38;1.52;;;16.00;92.00;;;;;;4980977;28;20463;-86
2023/05/18 08:37:54;;;;;;;9.00;1.50;;;15.90;91.40;;;;;;4996666;28;20134;-83
2023/05/18 08:40:55;;;;;;;5.00;1.40;;;15.90;91.70;;;;;;4994506;28;20046;-83
2023/05/18 08:43:46;;;;;;;3.90;1.13;;;16.00;92.30;;;;;;4994187;28;20134;-86
2023/05/18 08:46:34;;;;;;;11.73;1.73;;;16.00;91.70;;;;;;4980198;28;20089;-83
2023/05/18 08:49:21;;;;;;;5.80;1.85;;;16.00;91.20;;;;;;4979227;28;20137;-82
2023/05/18 08:52:08;;;;;;;10.55;2.28;;;16.10;90.80;;;;;;4979829;28;20761;-83
2023/05/18 08:54:56;;;;;;;8.38;1.27;;;16.20;91.10;;;;;;4980019;28;20104;-82
2023/05/18 08:57:45;;;;;;;5.28;1.30;;;16.20;90.50;;;;;;4993131;28;20097;-83
2023/05/18 09:00:32;;;;;;;7.13;1.60;;;16.30;90.90;;;;;;4993186;28;20050;-81
2023/05/18 09:03:23;;;;;;;7.30;1.63;;;16.60;90.50;;;;;;4993741;28;20125;-84
2023/05/18 09:06:17;;;;;;;9.98;1.77;;;16.80;90.70;;;;;;5012030;28;20565;-86
2023/05/18 09:09:03;;;;;;;5.82;1.85;;;16.80;90.30;;;;;;4968472;28;20054;-86
2023/05/18 09:11:50;;;;;;;11.55;2.05;;;16.80;90.60;;;;;;4993495;28;20058;-87
2023/05/18 09:14:40;;;;;;;9.43;1.67;;;17.10;90.80;;;;;;4979458;28;20045;-87
2023/05/18 09:17:26;;;;;;;10.35;2.00;;;17.30;90.60;;;;;;4980470;28;20066;-87
2023/05/18 09:20:12;;;;;;;6.13;1.42;;;17.40;90.10;;;;;;4979115;28;20061;-88
2023/05/18 09:22:59;;;;;;;6.50;2.13;;;17.50;88.50;;;;;;4979813;28;20491;-88
2023/05/18 09:25:48;;;;;;;9.00;1.40;;;17.60;88.90;;;;;;4978877;28;20132;-86
2023/05/18 09:28:40;;;;;;;7.63;1.63;;;17.60;87.50;;;;;;5010959;28;20054;-86
2023/05/18 09:31:29;;;;;;;6.45;1.80;;;17.60;88.40;;;;;;4993932;28;20111;-88
2023/05/18 09:34:18;;;;;;;9.32;1.88;;;17.80;86.90;;;;;;4993811;28;20060;-84
2023/05/18 09:37:04;;;;;;;9.60;1.80;;;17.90;87.70;;;;;;5008401;28;20092;-87
2023/05/18 09:40:06;;;;;;;8.40;1.50;;;18.00;85.90;;;;;;4992136;28;20132;-88
2023/05/18 09:42:55;;;;;;;10.88;1.92;;;18.20;84.50;;;;;;4979706;28;20058;-88
2023/05/18 09:45:43;;;;;;;7.47;1.55;;;18.30;86.20;;;;;;4992059;28;20077;-89
2023/05/18 09:48:29;;;;;;;6.95;1.33;;;18.20;85.40;;;;;;4979517;28;20061;-89
2023/05/18 09:51:16;;;;;;;10.15;1.80;;;18.10;84.60;;;;;;4992415;28;20073;-89
2023/05/18 09:54:05;;;;;;;6.28;1.52;;;17.90;82.80;;;;;;4992593;28;20060;-87
2023/05/18 09:56:56;;;;;;;5.78;1.00;;;18.00;84.60;;;;;;4996063;28;20054;-87
2023/05/18 09:59:42;;;;;;;7.13;1.60;;;18.10;85.50;;;;;;4980020;28;20065;-87
2023/05/18 10:02:29;;;;;;;5.95;1.27;;;18.20;84.90;;;;;;4991671;28;20072;-86
2023/05/18 10:05:22;;;;;;;5.85;1.20;;;18.30;84.10;;;;;;4978335;28;20139;-87
2023/05/18 10:08:13;;;;;;;3.83;1.25;;;18.40;85.40;;;;;;4992255;28;20062;-86
2023/05/18 10:11:03;;;;;;;7.18;1.80;;;18.30;83.40;;;;;;4996571;28;20132;-87
2023/05/18 10:13:54;;;;;;;5.35;1.20;;;18.40;84.60;;;;;;4993708;28;20058;-87
2023/05/18 10:16:45;;;;;;;5.87;1.87;;;18.40;84.60;;;;;;4993285;28;20589;-86
2023/05/18 10:19:34;;;;;;;7.25;1.52;;;18.40;84.80;;;;;;5008588;28;20049;-86
2023/05/18 10:22:22;;;;;;;7.80;1.42;;;18.10;83.60;;;;;;4979784;28;20058;-89
2023/05/18 10:25:13;;;;;;;7.05;1.48;;;18.00;84.60;;;;;;4991328;28;20077;-89
2023/05/18 10:28:06;;;;;;;8.32;1.58;;;17.90;83.30;;;;;;4993076;28;20054;-89
2023/05/18 10:30:54;;;;;;;6.85;1.40;;;17.80;83.70;;;;;;4992226;28;20636;-86
2023/05/18 10:33:44;;;;;;;7.35;1.67;;;17.90;84.80;;;;;;5010087;28;20046;-87
2023/05/18 10:36:34;;;;;;;7.30;1.52;;;17.80;84.00;;;;;;4992621;28;20046;-88
2023/05/18 10:39:21;;;;;;;7.20;1.52;;;17.70;83.70;;;;;;4979369;28;20577;-85
2023/05/18 10:42:09;;;;;;;11.05;1.65;;;17.60;83.60;;;;;;4978380;28;20049;-88
2023/05/18 10:45:00;;;;;;;8.57;1.77;;;17.50;83.70;;;;;;4977519;28;20115;-87
2023/05/18 10:47:47;;;;;;;10.38;2.00;;;17.70;85.30;;;;;;4981969;28;20529;-87
2023/05/18 10:50:37;;;;;;;8.25;1.55;;;17.80;85.50;;;;;;4982764;28;20075;-87
2023/05/18 10:53:26;;;;;;;8.95;1.98;;;17.80;85.10;;;;;;4995396;28;20050;-86
2023/05/18 10:56:15;;;;;;;12.95;1.98;;;18.00;85.90;;;;;;4995382;28;20049;-88
2023/05/18 10:59:03;;;;;;;4.95;1.45;;;18.20;85.70;;;;;;4983090;28;20060;-85
2023/05/18 11:01:52;;;;;;;8.27;1.77;;;18.20;85.70;;;;;;4983138;28;20085;-85
2023/05/18 11:04:39;;;;;;;5.47;1.65;;;18.30;86.10;;;;;;4995404;28;20061;-87
2023/05/18 11:07:27;;;;;;;9.65;2.03;;;18.30;85.60;;;;;;4981951;28;20054;-84
2023/05/18 11:10:14;;;;;;;4.10;1.85;;;18.30;86.20;;;;;;4982537;28;20536;-88
2023/05/18 11:13:07;;;;;;;5.38;1.50;;;18.20;84.60;;;;;;4982360;28;20144;-87
2023/05/18 11:15:53;;;;;;;10.27;1.30;;;18.30;84.70;;;;;;4996872;28;20064;-87
2023/05/18 11:18:45;;;;;;;8.10;1.42;;;18.60;84.90;;;;;;5012460;28;20060;-85
2023/05/18 11:21:34;;;;;;;7.45;1.33;;;18.90;83.80;;;;;;4995557;28;20450;-83
2023/05/18 11:24:31;;;;;;;9.90;1.92;;;19.20;85.50;;;;;;4997335;28;20053;-88
2023/05/18 11:27:19;;;;;;;8.60;1.50;;;20.10;85.20;;;;;;4995766;28;20417;-89
2023/05/18 11:30:26;;;;;;;5.35;1.38;;;20.40;83.00;;;;;;4981145;28;20057;-89
2023/05/18 11:33:20;;;;;;;5.53;1.50;;;20.60;78.30;;;;;;4995810;28;20054;-85
2023/05/18 11:36:12;;;;;;;9.37;2.30;;;20.80;77.70;;;;;;4995086;28;20100;-84
2023/05/18 11:39:10;;;;;;;7.93;1.30;;;20.90;80.00;;;;;;4996665;28;20139;-90
2023/05/18 11:42:22;;;;;;;11.80;1.92;;;21.20;78.00;;;;;;4997019;28;20054;-81
2023/05/18 11:45:10;;;;;;;6.50;1.50;;;21.40;72.40;;;;;;5013232;28;20486;-85
2023/05/18 11:48:01;;;;;;;7.60;1.75;;;21.90;74.80;;;;;;4995733;28;20097;-84
2023/05/18 11:50:48;;;;;;;8.38;1.60;;;22.40;75.20;;;;;;4996252;28;20529;-88
2023/05/18 11:53:40;;;;;;;8.38;1.70;;;22.30;73.40;;;;;;5013042;28;20054;-84
2023/05/18 11:56:32;;;;;;;8.10;1.60;;;22.10;71.60;;;;;;4980579;28;20062;-82
2023/05/18 11:59:30;;;;;;;10.05;1.83;;;22.20;72.50;;;;;;4994322;28;20057;-87
2023/05/18 12:02:30;;;;;;;4.45;1.05;;;22.50;71.00;;;;;;4980792;28;20054;-84
2023/05/18 12:05:18;;;;;;;5.60;1.27;;;22.80;71.40;;;;;;4994638;28;20569;-88
2023/05/18 12:08:08;;;;;;;7.22;1.48;;;22.40;70.40;;;;;;4981776;28;20053;-84
2023/05/18 12:10:56;;;;;;;8.23;1.48;;;22.50;70.60;;;;;;4993571;28;20136;-83
2023/05/18 12:13:42;;;;;;;8.90;1.52;;;22.10;69.90;;;;;;4995547;28;20108;-89
2023/05/18 12:16:30;;;;;;;11.52;1.90;;;21.90;70.60;;;;;;4994511;28;20108;-89
2023/05/18 12:19:18;;;;;;;3.45;1.05;;;21.70;70.10;;;;;;4980671;28;20053;-87
2023/05/18 12:22:05;;;;;;;8.65;1.77;;;21.40;70.80;;;;;;4994352;28;20059;-84
2023/05/18 12:24:51;;;;;;;8.05;1.67;;;21.20;71.90;;;;;;4995439;28;20061;-89
2023/05/18 12:27:43;;;;;;;6.82;1.40;;;20.90;72.00;;;;;;4998377;28;20093;-88
2023/05/18 12:30:35;;;;;;;11.30;2.85;;;20.90;72.50;;;;;;5011055;28;20081;-86
2023/05/18 12:33:21;;;;;;;11.50;1.70;;;20.60;72.30;;;;;;5011176;28;20057;-84
2023/05/18 12:36:12;;;;;;;6.85;1.23;;;20.60;72.80;;;;;;4979260;28;20057;-82
2023/05/18 12:39:01;;;;;;;11.63;1.63;;;20.60;74.80;;;;;;4996286;28;20046;-84
2023/05/18 12:41:48;;;;;;;9.52;1.48;;;20.20;74.10;;;;;;4994062;28;20088;-84
2023/05/18 12:44:34;;;;;;;8.48;1.45;;;20.10;75.50;;;;;;4984276;28;20062;-85
2023/05/18 12:47:20;;;;;;;12.07;1.73;;;20.20;76.10;;;;;;4994282;28;20145;-87
2023/05/18 12:50:06;;;;;;;6.30;1.48;;;20.40;76.10;;;;;;5010477;28;20050;-84
2023/05/18 12:52:55;;;;;;;6.20;1.50;;;20.30;76.30;;;;;;4993572;28;20533;-85
2023/05/18 12:55:44;;;;;;;9.85;1.65;;;20.30;75.30;;;;;;5011539;28;20054;-82
2023/05/18 12:58:31;;;;;;;7.55;1.60;;;20.30;76.20;;;;;;5011288;28;20046;-86
2023/05/18 13:01:17;;;;;;;6.63;1.55;;;20.50;76.10;;;;;;5010912;28;20053;-87
2023/05/18 13:04:09;;;;;;;8.80;1.45;;;20.90;75.90;;;;;;4993995;28;20144;-88
2023/05/18 13:06:56;;;;;;;14.60;2.55;;;21.00;75.20;;;;;;4993461;28;20438;-89
2023/05/18 13:09:46;;;;;;;10.40;1.40;;;21.20;76.00;;;;;;4996845;28;20057;-88
2023/05/18 13:12:44;;;;;;;8.70;1.88;;;21.10;74.00;;;;;;4992433;28;20060;-84
2023/05/18 13:15:39;;;;;;;6.93;1.60;;;21.20;74.30;;;;;;5012266;28;20053;-86
2023/05/18 13:18:26;;;;;;;7.05;1.70;;;21.40;75.10;;;;;;5011471;28;20064;-86
2023/05/18 13:21:13;;;;;;;5.45;1.60;;;21.20;73.10;;;;;;5010768;28;20089;-85
2023/05/18 13:24:05;;;;;;;8.50;1.50;;;21.30;74.60;;;;;;5010521;28;20061;-83
2023/05/18 13:26:51;;;;;;;10.75;2.00;;;21.60;75.30;;;;;;5011493;28;20053;-84
2023/05/18 13:29:37;;;;;;;10.25;1.50;;;21.60;74.70;;;;;;5011516;28;20532;-82
2023/05/18 13:32:23;;;;;;;10.25;1.70;;;22.00;74.90;;;;;;4993739;28;20078;-83
2023/05/18 13:35:10;;;;;;;9.10;1.40;;;22.10;74.40;;;;;;5012443;28;20053;-83
2023/05/18 13:37:56;;;;;;;12.60;2.03;;;22.10;73.60;;;;;;4995617;28;20085;-89
2023/05/18 13:40:45;;;;;;;8.73;1.77;;;22.10;71.90;;;;;;4994209;28;20069;-84
2023/05/18 13:43:34;;;;;;;8.88;2.13;;;22.40;71.70;;;;;;4995757;28;20746;-88
2023/05/18 13:46:24;;;;;;;6.53;1.52;;;22.50;71.30;;;;;;5004669;28;20057;-83
2023/05/18 13:49:11;;;;;;;6.68;1.60;;;22.40;70.40;;;;;;5005683;28;20497;-83
2023/05/18 13:51:59;;;;;;;7.63;1.90;;;21.70;71.10;;;;;;5004309;28;20107;-82
2023/05/18 13:54:45;;;;;;;7.97;1.90;;;22.00;72.10;;;;;;4997027;28;20050;-82
2023/05/18 13:57:34;;;;;;;8.95;2.47;;;21.80;71.30;;;;;;5000303;28;20060;-81
2023/05/18 14:00:20;;;;;;;12.00;1.70;;;22.00;72.40;;;;;;4995357;28;20058;-84
2023/05/18 14:03:11;;;;;;;8.02;2.28;;;22.20;73.00;;;;;;4994053;28;20853;-82
2023/05/18 14:05:57;;;;;;;9.35;1.33;;;21.90;70.80;;;;;;4992795;28;20042;-84
2023/05/18 14:08:43;;;;;;;10.57;2.25;;;21.40;71.60;;;;;;4992454;28;20053;-87
2023/05/18 14:11:33;;;;;;;10.10;2.38;;;22.20;72.00;;;;;;5008865;28;20132;-85
2023/05/18 14:14:20;;;;;;;8.65;2.78;;;22.70;71.90;;;;;;4992525;28;20100;-86
2023/05/18 14:17:08;;;;;;;5.22;1.65;;;23.40;70.20;;;;;;4992866;28;20061;-91
2023/05/18 14:20:00;;;;;;;11.32;2.17;;;22.90;68.00;;;;;;4992138;28;20103;-89
2023/05/18 14:22:46;;;;;;;7.53;1.40;;;22.90;68.60;;;;;;4997142;28;20061;-85
2023/05/18 14:25:32;;;;;;;6.38;1.80;;;23.40;67.80;;;;;;5015808;28;20054;-87
2023/05/18 14:28:18;;;;;;;11.02;2.65;;;23.30;68.20;;;;;;5015775;28;20050;-85
2023/05/18 14:31:04;;;;;;;5.13;1.15;;;23.50;68.70;;;;;;4996682;28;20053;-87
2023/05/18 14:33:51;;;;;;;8.07;1.42;;;23.90;67.50;;;;;;4989728;28;20130;-84
2023/05/18 14:36:37;;;;;;;4.88;1.17;;;23.50;67.00;;;;;;4995280;28;20085;-81
2023/05/18 14:39:23;;;;;;;12.45;1.48;;;22.90;67.00;;;;;;5000289;28;20491;-86
2023/05/18 14:42:09;;;;;;;8.57;1.63;;;22.80;67.60;;;;;;4982547;28;20046;-85